EDT,Max TemperatureF,Mean TemperatureF,Min TemperatureF,Max Dew PointF,MeanDew PointF,Min DewpointF,Max Humidity, Mean Humidity, Min Humidity, Max Sea Level PressureIn, Mean Sea Level PressureIn, Min Sea Level PressureIn, Max VisibilityMiles, Mean VisibilityMiles, Min VisibilityMiles, Max Wind SpeedMPH, Mean Wind SpeedMPH, Max Gust SpeedMPH,PrecipitationIn, CloudCover, Events, WindDirDegrees
2012-10-1,72,66,60,70,64,60,100,96,81,29.93,29.88,29.84,10,8,3,10,3,,0.06,7,Rain,65
2012-10-2,88,79,71,78,75,70,100,94,58,29.98,29.86,29.81,10,9,2,10,5,21,0.37,6,Rain-Thunderstorm,153
2012-10-3,85,80,75,76,74,68,100,88,58,30.18,30.06,29.99,10,10,10,8,4,,0.00,4,Rain,202
2012-10-4,77,72,67,70,67,64,98,83,65,30.25,30.19,30.15,10,10,4,10,4,,0.08,1,Rain,257
2012-10-5,79,70,61,66,61,55,100,81,43,30.18,30.11,30.03,10,10,6,6,2,,0.00,0,Rain,347
2012-10-6,84,72,60,66,61,58,99,74,40,30.02,29.95,29.87,10,10,10,12,3,,0.01,0,,252
2012-10-7,69,61,53,62,53,50,89,80,67,30.13,30.03,29.96,10,10,10,14,7,20,0.00,6,Rain,2
2012-10-8,54,51,48,50,49,46,100,92,76,30.19,30.14,30.11,10,7,2,13,8,20,0.83,8,Rain,11
2012-10-9,56,52,49,54,52,48,100,95,85,30.16,30.12,30.08,10,9,3,10,6,,0.01,7,,346
2012-10-10,72,62,53,54,52,50,97,77,46,30.11,30.06,29.99,10,10,10,12,6,,0.00,3,,265
2012-10-11,68,58,48,51,45,41,98,67,40,30.30,30.23,30.13,10,10,6,13,5,18,0.00,0,,17
2012-10-12,74,60,45,52,48,44,98,68,36,30.28,30.22,30.17,10,10,6,10,2,,0.00,0,,324
2012-10-13,69,57,45,53,46,40,94,71,45,30.46,30.38,30.35,10,10,10,9,5,,0.00,0,,41
2012-10-14,79,62,45,62,54,45,98,80,48,30.33,30.21,30.04,10,10,10,7,1,,0.00,1,Rain,285
2012-10-15,79,70,57,68,62,51,91,78,61,30.03,29.85,29.73,10,10,6,17,6,24,0.12,2,Rain,246
2012-10-16,71,60,50,59,45,41,95,59,34,29.97,29.87,28.91,10,10,7,13,6,18,0.00,0,Rain,344
2012-10-17,70,58,46,51,48,46,98,77,45,30.02,29.97,29.94,10,10,10,7,1,,0.00,0,,155
2012-10-18,80,64,48,66,59,47,98,83,59,29.94,29.86,29.78,10,10,10,12,3,,0.00,1,Rain,153
2012-10-19,78,67,56,67,59,38,100,79,25,29.80,29.76,29.71,10,10,7,16,5,25,0.05,2,Rain,229
2012-10-20,73,60,48,50,45,40,88,59,32,29.95,29.83,29.77,10,10,10,10,5,,0.00,0,,268
2012-10-21,70,57,46,49,42,39,92,62,35,30.15,30.09,29.98,10,10,10,8,4,,0.00,0,,351
2012-10-22,75,59,43,53,46,42,98,72,32,30.25,30.18,30.14,10,10,9,6,1,,0.00,0,,330
2012-10-23,79,63,46,57,50,46,100,70,32,30.24,30.16,30.11,10,10,10,6,1,,0.00,0,Rain,241
2012-10-24,80,65,50,59,54,50,100,78,37,30.21,30.15,30.09,10,9,1,6,0,,0.00,0,,250
2012-10-25,82,66,51,62,58,51,99,79,48,30.17,30.12,30.08,10,10,10,10,2,17,0.00,0,Rain,87
2012-10-26,71,63,56,64,60,55,100,89,75,30.12,30.01,29.89,10,8,0,12,5,18,0.00,5,Fog-Rain,19
2012-10-27,67,66,64,64,59,55,89,80,71,29.88,29.73,29.64,10,10,10,17,11,32,0.00,5,Rain,15
2012-10-28,65,61,57,55,51,48,82,69,56,29.63,29.59,29.55,10,10,10,22,14,31,0.00,5,Rain,347
2012-10-29,54,50,44,48,39,34,77,66,53,29.58,29.48,29.39,10,10,10,24,17,33,0.01,5,Rain,294
2012-10-30,53,48,44,39,34,30,76,58,46,29.64,29.47,29.36,10,10,10,23,15,31,0.01,2,Rain,258
2012-10-31,58,48,38,38,35,33,82,60,40,29.79,29.71,29.65,10,10,10,14,7,24,0.00,3,,272